createdAt,value
2023-04-18T00:00:53.470Z,102354.34
2023-04-18T00:03:19.916Z,102353.47
2023-04-18T00:05:46.397Z,102354.34
2023-04-18T00:08:12.904Z,102349.88
2023-04-18T00:10:39.173Z,102356.84
2023-04-18T00:13:05.567Z,102359.47
2023-04-18T00:15:31.889Z,102354.19
2023-04-18T00:17:58.207Z,102358.50
2023-04-18T00:20:24.522Z,102356.75
2023-04-18T00:22:50.841Z,102355.81
2023-04-18T00:25:17.116Z,102353.31
2023-04-18T00:27:43.435Z,102347.81
2023-04-18T00:30:10.249Z,102352.06
2023-04-18T00:32:36.616Z,102357.28
2023-04-18T00:35:02.981Z,102358.19
2023-04-18T00:37:29.900Z,102352.91
2023-04-18T00:39:56.182Z,102351.88
2023-04-18T00:42:22.517Z,102351.72
2023-04-18T00:44:49.055Z,102344.72
2023-04-18T00:47:16.312Z,102348.31
2023-04-18T00:49:46.072Z,102356.97
2023-04-18T00:52:12.984Z,102360.50
2023-04-18T00:54:40.544Z,102357.78
2023-04-18T00:57:06.849Z,102363.94
2023-04-18T00:59:36.191Z,102359.72
2023-04-18T01:02:03.508Z,102359.59
2023-04-18T01:04:30.745Z,102360.50
2023-04-18T01:06:57.296Z,102356.13
2023-04-18T01:09:24.603Z,102357.78
2023-04-18T01:11:50.926Z,102359.47
2023-04-18T01:14:19.330Z,102355.16
2023-04-18T01:16:46.584Z,102355.94
2023-04-18T01:19:12.880Z,102361.19
2023-04-18T01:21:39.142Z,102352.44
2023-04-18T01:24:16.310Z,102359.44
2023-04-18T01:26:45.039Z,102359.44
2023-04-18T01:29:11.529Z,102366.44
2023-04-18T01:31:38.861Z,102361.28
2023-04-18T01:34:06.119Z,102359.63
2023-04-18T01:36:32.922Z,102357.88
2023-04-18T01:38:59.843Z,102352.59
2023-04-18T01:41:26.514Z,102358.00
2023-04-18T01:43:52.773Z,102366.00
2023-04-18T01:46:19.101Z,102360.09
2023-04-18T01:48:45.493Z,102361.78
2023-04-18T01:51:11.792Z,102360.13
2023-04-18T01:53:38.064Z,102357.47
2023-04-18T01:56:04.531Z,102355.88
2023-04-18T01:58:30.806Z,102360.13
2023-04-18T02:00:57.106Z,102354.94
2023-04-18T02:03:24.230Z,102353.16
2023-04-18T02:05:51.541Z,102347.91
2023-04-18T02:08:17.910Z,102346.16
2023-04-18T02:10:44.243Z,102348.91
2023-04-18T02:13:10.675Z,102348.06
2023-04-18T02:15:37.168Z,102345.41
2023-04-18T02:18:03.769Z,102341.81
2023-04-18T02:20:30.310Z,102350.59
2023-04-18T02:22:56.574Z,102350.47
2023-04-18T02:25:22.841Z,102345.19
2023-04-18T02:27:49.646Z,102353.88
2023-04-18T02:30:15.996Z,102344.28
2023-04-18T02:32:42.287Z,102350.53
2023-04-18T02:35:08.760Z,102345.25
2023-04-18T02:37:35.044Z,102349.44
2023-04-18T02:40:01.401Z,102354.66
2023-04-18T02:42:27.717Z,102358.25
2023-04-18T02:44:53.999Z,102361.63
2023-04-18T02:47:20.265Z,102359.91
2023-04-18T02:49:46.538Z,102357.31
2023-04-18T02:52:12.808Z,102352.06
2023-04-18T02:54:39.060Z,102360.81
2023-04-18T02:57:05.588Z,102359.97
2023-04-18T02:59:31.885Z,102360.81
2023-04-18T03:01:58.212Z,102360.09
2023-04-18T03:04:24.550Z,102356.44
2023-04-18T03:06:50.879Z,102361.72
2023-04-18T03:09:17.185Z,102366.00
2023-04-18T03:11:43.465Z,102364.25
2023-04-18T03:14:09.805Z,102366.00
2023-04-18T03:16:36.141Z,102366.91
2023-04-18T03:19:02.434Z,102361.63
2023-04-18T03:21:28.740Z,102375.72
2023-04-18T03:23:55.012Z,102366.09
2023-04-18T03:26:21.352Z,102373.00
2023-04-18T03:28:47.628Z,102371.28
2023-04-18T03:31:13.926Z,102372.16
2023-04-18T03:33:40.181Z,102369.53
2023-04-18T03:36:06.616Z,102368.53
2023-04-18T03:38:32.882Z,102370.28
2023-04-18T03:40:59.170Z,102376.34
2023-04-18T03:43:25.436Z,102369.31
2023-04-18T03:45:51.783Z,102371.00
2023-04-18T03:48:18.115Z,102384.94
2023-04-18T03:50:44.401Z,102378.03
2023-04-18T03:53:10.730Z,102381.75
2023-04-18T03:55:36.999Z,102383.38
2023-04-18T03:58:03.361Z,102392.91
2023-04-18T04:00:29.796Z,102379.78
